Gandsi, Mississippi
Current Conditions -  °F | °C
As of 5:15 PM on Friday 19 Dec 2014 (Local Time) from KPIB Reporting Station
Clear Clear  
Wind Chill:   Ceiling: Unl
Heat Index:   Visibility: 7mi
Dew Point:   Wind: 8mph
Humidity: 87%   Direction: 50°NE
Pressure: 30.15"   Gusts: NA
Location:  31.5166°N, 89.4877°W
Report Text: KPIB 192315Z AUTO 05007KT 7SM CLR 08/06 A3015 RMK AO1 P0002
Loading
Personal Weather Stations






























Interactive Weather Map New forecast layout! Learn more

10-Day Weather Forecast

Advertisements
Track Severe Weather on mobile